Time;durP1;ratioP1;P1;durP2;ratioP2;P2;SDS_P1;SDS_P2;PMS_P1;PMS_P2;Temp;Humidity;BMP_temperature;BMP_pressure;BME280_temperature;BME280_humidity;BME280_pressure;Samples;Min_cycle;Max_cycle;Signal;HPM_P1;HPM_P2
2023/02/18 00:00:16;;;;;;;32.05;27.60;;;;;;;12.66;100.00;102173.06;5233125;28;20033;-72
2023/02/18 00:02:48;;;;;;;30.30;27.10;;;;;;;12.53;100.00;102161.72;5231802;28;20041;-74
2023/02/18 00:05:20;;;;;;;34.10;27.30;;;;;;;12.58;100.00;102151.75;5234610;28;20032;-74
2023/02/18 00:07:52;;;;;;;34.30;28.10;;;;;;;12.65;100.00;102155.63;5232741;28;20399;-74
2023/02/18 00:10:23;;;;;;;31.85;27.35;;;;;;;12.66;100.00;102161.72;5232261;28;20049;-74
2023/02/18 00:12:54;;;;;;;33.35;28.20;;;;;;;12.61;100.00;102158.56;5236300;28;20036;-74
2023/02/18 00:15:26;;;;;;;32.90;27.90;;;;;;;12.59;100.00;102163.94;5235648;28;20088;-73
2023/02/18 00:17:57;;;;;;;32.30;28.80;;;;;;;12.60;100.00;102152.47;5230526;28;20064;-74
2023/02/18 00:20:29;;;;;;;33.33;29.20;;;;;;;12.60;100.00;102144.56;5236203;28;20029;-74
2023/02/18 00:23:01;;;;;;;34.20;28.20;;;;;;;12.61;100.00;102145.41;5233368;28;20049;-73
2023/02/18 00:25:32;;;;;;;34.67;29.42;;;;;;;12.60;100.00;102143.72;5233155;28;20036;-74
2023/02/18 00:28:04;;;;;;;31.45;27.63;;;;;;;12.65;100.00;102136.34;5234674;28;20391;-74
2023/02/18 00:30:40;;;;;;;31.98;28.50;;;;;;;12.73;100.00;102139.28;5234209;28;20049;-74
2023/02/18 00:33:11;;;;;;;33.40;28.73;;;;;;;12.68;100.00;102146.63;5233221;28;20071;-74
2023/02/18 00:35:42;;;;;;;33.13;28.15;;;;;;;12.61;100.00;102145.41;5231962;28;20375;-74
2023/02/18 00:38:13;;;;;;;35.17;28.58;;;;;;;12.65;100.00;102126.69;5235679;28;20495;-72
2023/02/18 00:40:46;;;;;;;33.45;28.80;;;;;;;12.63;100.00;102131.22;5232431;28;20087;-74
2023/02/18 00:43:17;;;;;;;31.85;28.30;;;;;;;12.66;100.00;102125.72;5232221;28;20038;-74
2023/02/18 00:45:49;;;;;;;34.17;28.80;;;;;;;12.70;100.00;102123.72;5235090;28;20021;-74
2023/02/18 00:48:21;;;;;;;38.25;30.75;;;;;;;12.63;100.00;102118.06;5216606;28;20029;-73
2023/02/18 00:50:53;;;;;;;33.83;28.20;;;;;;;12.61;100.00;102108.59;5232496;28;20065;-74
2023/02/18 00:53:24;;;;;;;33.83;29.15;;;;;;;12.68;100.00;102099.31;5233621;28;20064;-74
2023/02/18 00:55:56;;;;;;;39.13;31.27;;;;;;;12.61;100.00;102100.72;5235193;28;20053;-74
2023/02/18 00:58:27;;;;;;;36.70;32.15;;;;;;;12.54;100.00;102092.47;5230615;28;20108;-73
2023/02/18 01:00:58;;;;;;;34.70;30.58;;;;;;;12.66;100.00;102106.50;5215010;28;20055;-74
2023/02/18 01:03:30;;;;;;;33.92;28.85;;;;;;;12.63;100.00;102096.19;5215553;28;20032;-74
2023/02/18 01:06:02;;;;;;;32.38;27.10;;;;;;;12.68;100.00;102101.09;5234433;28;20620;-74
2023/02/18 01:08:35;;;;;;;32.58;28.00;;;;;;;12.60;100.00;102096.41;5213009;28;20104;-73
2023/02/18 01:11:08;;;;;;;30.90;26.15;;;;;;;12.59;100.00;102100.84;5234310;28;20060;-74
2023/02/18 01:13:39;;;;;;;;;;;;;;;13.14;100.00;102096.75;5233442;28;20052;-74
2023/02/18 01:16:10;;;;;;;30.38;24.38;;;;;;;12.51;100.00;102084.78;5232858;28;19960;-74
2023/02/18 01:18:42;;;;;;;32.92;25.25;;;;;;;12.54;100.00;102097.72;5232953;28;20045;-74
2023/02/18 01:21:14;;;;;;;31.80;23.38;;;;;;;12.49;100.00;102102.44;5232377;28;20434;-73
2023/02/18 01:23:45;;;;;;;31.48;24.20;;;;;;;12.49;100.00;102086.69;5233366;28;20041;-74
2023/02/18 01:26:17;;;;;;;28.38;23.05;;;;;;;12.39;100.00;102080.44;5233379;28;20116;-73
2023/02/18 01:28:48;;;;;;;26.70;21.92;;;;;;;12.50;100.00;102085.75;5234285;28;20037;-74
2023/02/18 01:31:20;;;;;;;29.98;21.75;;;;;;;12.47;100.00;102093.84;5234186;28;20022;-74
2023/02/18 01:33:51;;;;;;;25.60;20.50;;;;;;;12.46;100.00;102084.25;5232430;28;20055;-74
2023/02/18 01:36:22;;;;;;;23.70;19.58;;;;;;;12.36;100.00;102081.50;5230609;28;20025;-72
2023/02/18 01:38:53;;;;;;;21.25;17.17;;;;;;;12.43;100.00;102078.44;5227405;28;20024;-74
2023/02/18 01:41:25;;;;;;;22.15;18.23;;;;;;;12.31;100.00;102070.47;5227841;28;20032;-75
2023/02/18 01:44:12;;;;;;;22.25;17.10;;;;;;;12.57;100.00;102079.06;5229638;28;20025;-75
2023/02/18 01:46:44;;;;;;;20.23;17.98;;;;;;;12.35;100.00;102071.06;5231298;28;20083;-74
2023/02/18 01:49:22;;;;;;;20.75;17.95;;;;;;;12.36;100.00;102072.78;5228404;28;20030;-72
2023/02/18 01:51:57;;;;;;;21.88;17.48;;;;;;;12.32;100.00;102074.78;5226234;28;20053;-74
2023/02/18 01:54:35;;;;;;;21.52;18.42;;;;;;;12.33;100.00;102065.09;5228298;28;20052;-73
2023/02/18 01:57:12;;;;;;;22.20;17.38;;;;;;;12.27;100.00;102057.66;5229204;28;20037;-75
2023/02/18 01:59:58;;;;;;;20.15;17.95;;;;;;;12.37;100.00;102070.03;5227774;28;20021;-73
2023/02/18 02:02:34;;;;;;;22.63;18.50;;;;;;;12.18;100.00;102069.69;5225753;28;20025;-74
2023/02/18 02:05:06;;;;;;;19.33;17.05;;;;;;;12.12;100.00;102073.59;5227244;28;20029;-74
2023/02/18 02:07:38;;;;;;;22.45;18.30;;;;;;;12.13;100.00;102063.94;5232226;28;20332;-74
2023/02/18 02:10:13;;;;;;;21.48;17.20;;;;;;;12.14;100.00;102069.06;5228198;28;20469;-74
2023/02/18 02:12:59;;;;;;;25.45;19.08;;;;;;;12.24;100.00;102052.66;5226066;28;20024;-74
2023/02/18 02:15:45;;;;;;;22.08;18.20;;;;;;;12.25;100.00;102054.31;5219613;28;20033;-74
2023/02/18 02:18:39;;;;;;;23.20;18.63;;;;;;;12.15;100.00;102054.13;5223077;28;20030;-74
2023/02/18 02:21:29;;;;;;;22.88;19.42;;;;;;;12.12;100.00;102049.94;5229579;28;20454;-74
2023/02/18 02:24:32;;;;;;;20.27;18.05;;;;;;;12.37;100.00;102040.28;5223049;28;20033;-74
2023/02/18 02:27:25;;;;;;;19.90;17.80;;;;;;;12.32;100.00;102045.88;5228474;28;20034;-74
2023/02/18 02:30:08;;;;;;;22.90;18.65;;;;;;;12.28;100.00;102017.31;5226955;28;20070;-74
2023/02/18 02:33:17;;;;;;;22.52;19.27;;;;;;;12.30;100.00;102023.28;5227377;28;20030;-74
2023/02/18 02:36:14;;;;;;;21.38;18.75;;;;;;;12.40;100.00;102022.50;5192046;28;20037;-74
2023/02/18 02:39:10;;;;;;;22.00;18.95;;;;;;;12.17;100.00;102008.41;5226112;28;20552;-72
2023/02/18 02:42:13;;;;;;;22.05;18.88;;;;;;;12.36;100.00;102014.94;5222764;28;20712;-74
2023/02/18 02:45:01;;;;;;;21.30;18.33;;;;;;;12.24;100.00;102008.81;5230581;28;20029;-74
2023/02/18 02:47:44;;;;;;;20.42;17.52;;;;;;;12.15;100.00;101996.34;5230347;28;20049;-74
2023/02/18 02:50:27;;;;;;;19.35;17.17;;;;;;;12.17;100.00;102004.97;5231384;28;20166;-73
2023/02/18 02:53:01;;;;;;;;;;;;;;;12.67;100.00;102005.63;5231628;28;20038;-74
2023/02/18 02:55:32;;;;;;;20.08;17.25;;;;;;;12.14;100.00;102003.38;5229102;28;20008;-74
2023/02/18 02:58:03;;;;;;;17.38;15.52;;;;;;;12.04;100.00;101988.41;5236221;28;20493;-73
2023/02/18 03:01:05;;;;;;;16.85;15.15;;;;;;;12.20;100.00;101994.22;5234888;28;20025;-72
2023/02/18 03:03:45;;;;;;;15.18;13.68;;;;;;;12.09;100.00;101988.91;5233361;28;20156;-71
2023/02/18 03:06:40;;;;;;;15.32;13.73;;;;;;;12.15;100.00;101980.56;5236014;28;20041;-74
2023/02/18 03:09:49;;;;;;;14.38;12.90;;;;;;;12.23;100.00;101977.38;5234635;28;20131;-74
2023/02/18 03:12:49;;;;;;;13.27;11.98;;;;;;;12.15;100.00;101972.69;5231609;28;20034;-74
2023/02/18 03:15:32;;;;;;;13.65;12.25;;;;;;;12.02;100.00;101961.41;5230588;28;20132;-74
2023/02/18 03:18:21;;;;;;;11.40;10.30;;;;;;;12.10;100.00;101959.06;5236249;28;20034;-73
2023/02/18 03:21:00;;;;;;;12.05;10.85;;;;;;;11.99;100.00;101953.75;5216093;28;20422;-74
2023/02/18 03:23:37;;;;;;;11.15;9.98;;;;;;;12.02;100.00;101945.66;5237552;28;20036;-74
2023/02/18 03:26:10;;;;;;;10.20;9.18;;;;;;;11.90;100.00;101936.91;5229536;28;20072;-74
2023/02/18 03:28:42;;;;;;;11.10;10.00;;;;;;;11.87;100.00;101926.59;5235563;28;20029;-74
2023/02/18 03:31:19;;;;;;;9.77;8.77;;;;;;;11.87;100.00;101919.56;5236532;28;20025;-74
2023/02/18 03:34:02;;;;;;;9.70;8.77;;;;;;;11.91;100.00;101914.94;5235278;28;20348;-74
2023/02/18 03:36:35;;;;;;;8.43;7.53;;;;;;;11.84;100.00;101914.53;5233260;28;20056;-74
2023/02/18 03:39:09;;;;;;;7.60;6.90;;;;;;;11.82;100.00;101915.56;5232830;28;20378;-74
2023/02/18 03:41:42;;;;;;;8.63;7.65;;;;;;;11.77;100.00;101902.75;5228385;28;20438;-73
2023/02/18 03:44:13;;;;;;;7.07;6.38;;;;;;;11.80;100.00;101902.53;5235056;28;20533;-74
2023/02/18 03:46:45;;;;;;;7.05;6.35;;;;;;;11.81;100.00;101898.13;5236049;28;20108;-74
2023/02/18 03:49:17;;;;;;;6.30;5.70;;;;;;;11.78;100.00;101898.34;5236179;28;20037;-74
2023/02/18 03:51:48;;;;;;;6.32;5.65;;;;;;;11.82;100.00;101895.41;5233937;28;20080;-73
2023/02/18 03:54:19;;;;;;;5.55;5.05;;;;;;;11.78;100.00;101893.09;5232582;28;20040;-74
2023/02/18 03:56:51;;;;;;;6.10;4.97;;;;;;;11.72;100.00;101891.78;5228176;28;20025;-74
2023/02/18 03:59:22;;;;;;;5.18;4.55;;;;;;;11.65;100.00;101882.66;5234848;28;20029;-72
2023/02/18 04:01:53;;;;;;;4.82;4.32;;;;;;;11.74;100.00;101889.03;5233076;28;20372;-74
2023/02/18 04:04:24;;;;;;;4.82;4.32;;;;;;;11.76;100.00;101884.50;5229765;28;20386;-74
2023/02/18 04:06:56;;;;;;;4.95;4.40;;;;;;;11.73;100.00;101887.34;5233823;28;20036;-74
2023/02/18 04:09:27;;;;;;;4.57;3.85;;;;;;;11.74;100.00;101876.72;5233491;28;20514;-74
2023/02/18 04:11:58;;;;;;;4.38;3.90;;;;;;;11.66;100.00;101874.66;5236642;28;20057;-74
2023/02/18 04:14:30;;;;;;;3.60;3.30;;;;;;;11.65;100.00;101877.41;5229791;28;20021;-74
2023/02/18 04:17:01;;;;;;;4.03;3.60;;;;;;;11.71;100.00;101866.47;5235613;28;20040;-74
2023/02/18 04:19:32;;;;;;;3.75;3.13;;;;;;;11.68;100.00;101870.16;5232794;28;20021;-74
2023/02/18 04:22:04;;;;;;;3.40;3.10;;;;;;;11.64;100.00;101870.50;5233100;28;20068;-74
2023/02/18 04:24:35;;;;;;;4.15;3.40;;;;;;;11.58;100.00;101871.75;5231295;28;20028;-74
2023/02/18 04:27:06;;;;;;;3.15;2.85;;;;;;;11.70;100.00;101867.41;5233748;28;20360;-74
2023/02/18 04:29:38;;;;;;;3.08;2.72;;;;;;;11.75;100.00;101873.19;5233574;28;20037;-74
2023/02/18 04:32:09;;;;;;;3.28;2.90;;;;;;;11.69;100.00;101868.38;5215674;28;20040;-74
2023/02/18 04:34:40;;;;;;;3.13;2.72;;;;;;;11.67;100.00;101859.78;5230614;28;20025;-74
2023/02/18 04:37:11;;;;;;;2.88;2.45;;;;;;;11.66;100.00;101860.72;5236302;28;20112;-73
2023/02/18 04:39:43;;;;;;;3.13;2.50;;;;;;;11.67;100.00;101865.03;5235084;28;20027;-74
2023/02/18 04:42:14;;;;;;;3.17;2.70;;;;;;;11.65;100.00;101877.41;5232278;28;20576;-74
2023/02/18 04:44:45;;;;;;;3.20;2.38;;;;;;;11.60;100.00;101861.19;5229581;28;20053;-74
2023/02/18 04:47:17;;;;;;;3.17;2.42;;;;;;;11.66;100.00;101871.22;5231766;28;20029;-74
2023/02/18 04:49:48;;;;;;;3.03;2.72;;;;;;;11.67;100.00;101863.25;5233228;28;20060;-73
2023/02/18 04:52:19;;;;;;;3.15;2.63;;;;;;;11.68;100.00;101858.81;5233440;28;20437;-74
2023/02/18 04:54:51;;;;;;;2.78;2.10;;;;;;;11.63;100.00;101863.56;5230611;28;20025;-74
2023/02/18 04:57:22;;;;;;;2.85;2.50;;;;;;;11.63;100.00;101855.69;5233266;28;20036;-74
2023/02/18 04:59:53;;;;;;;2.85;2.38;;;;;;;11.59;100.00;101862.97;5233348;28;20025;-74
2023/02/18 05:02:25;;;;;;;3.40;2.42;;;;;;;11.50;100.00;101836.53;5231827;28;20031;-72
2023/02/18 05:04:56;;;;;;;3.60;2.30;;;;;;;11.64;100.00;101849.50;5227963;28;20030;-71
2023/02/18 05:07:27;;;;;;;3.78;2.72;;;;;;;11.58;100.00;101840.28;5233227;28;21077;-74
2023/02/18 05:09:58;;;;;;;3.33;2.88;;;;;;;11.56;100.00;101839.56;5229091;28;20495;-74
2023/02/18 05:12:30;;;;;;;2.65;2.33;;;;;;;11.58;100.00;101834.19;5235596;28;20529;-74
2023/02/18 05:15:02;;;;;;;2.45;2.20;;;;;;;11.59;100.00;101830.59;5229999;28;20033;-72
2023/02/18 05:17:33;;;;;;;4.15;2.40;;;;;;;11.54;100.00;101840.63;5233441;28;20033;-73
2023/02/18 05:20:05;;;;;;;3.00;2.28;;;;;;;11.55;100.00;101839.66;5232103;28;20127;-74
2023/02/18 05:22:37;;;;;;;2.77;2.40;;;;;;;11.53;100.00;101828.44;5232804;28;20030;-74
2023/02/18 05:25:08;;;;;;;2.50;2.15;;;;;;;11.51;100.00;101820.66;5230089;28;20302;-74
2023/02/18 05:27:40;;;;;;;2.72;2.15;;;;;;;11.53;100.00;101813.53;5234504;28;20459;-72
2023/02/18 05:30:11;;;;;;;2.50;2.28;;;;;;;11.44;100.00;101807.19;5231963;28;20036;-74
2023/02/18 05:32:42;;;;;;;3.22;2.17;;;;;;;11.55;100.00;101818.66;5230551;28;20026;-73
2023/02/18 05:35:14;;;;;;;2.67;2.38;;;;;;;11.49;100.00;101819.13;5234126;28;20025;-75
2023/02/18 05:37:45;;;;;;;2.65;2.42;;;;;;;11.51;100.00;101814.59;5228697;28;20451;-74
2023/02/18 05:40:16;;;;;;;2.97;2.35;;;;;;;11.47;100.00;101811.34;5232604;28;20421;-74
2023/02/18 05:42:48;;;;;;;2.50;2.20;;;;;;;11.48;100.00;101820.91;5229867;28;20033;-75
2023/02/18 05:45:19;;;;;;;2.67;2.20;;;;;;;11.56;100.00;101821.19;5231823;28;20411;-74
2023/02/18 05:47:50;;;;;;;2.95;2.63;;;;;;;11.49;100.00;101832.25;5214374;28;20029;-74
2023/02/18 05:50:22;;;;;;;3.33;2.95;;;;;;;11.57;100.00;101822.03;5233201;28;20040;-74
2023/02/18 05:52:53;;;;;;;4.18;3.78;;;;;;;11.57;100.00;101822.03;5231590;28;20029;-73
2023/02/18 05:55:24;;;;;;;4.68;4.22;;;;;;;11.51;100.00;101818.03;5226663;28;20022;-72
2023/02/18 05:57:56;;;;;;;5.00;4.05;;;;;;;11.54;100.00;101812.56;5231753;28;20103;-74
2023/02/18 06:00:28;;;;;;;5.43;4.82;;;;;;;11.52;100.00;101804.00;5227049;28;20390;-73
2023/02/18 06:03:00;;;;;;;5.88;5.30;;;;;;;11.61;100.00;101805.09;5233799;28;20041;-75
2023/02/18 06:05:31;;;;;;;5.82;5.30;;;;;;;11.56;100.00;101799.38;5229551;28;20021;-73
2023/02/18 06:08:03;;;;;;;6.03;5.43;;;;;;;11.59;100.00;101799.97;5231646;28;20049;-74
2023/02/18 06:10:35;;;;;;;6.13;5.57;;;;;;;11.52;100.00;101793.50;5228744;28;20369;-74
2023/02/18 06:13:06;;;;;;;6.45;5.85;;;;;;;11.54;100.00;101796.84;5229624;28;20127;-74
2023/02/18 06:15:38;;;;;;;6.88;6.28;;;;;;;11.61;100.00;101787.56;5231333;28;20022;-74
2023/02/18 06:18:09;;;;;;;7.20;6.50;;;;;;;11.52;100.00;101797.91;5213607;28;20025;-74
2023/02/18 06:20:40;;;;;;;7.78;7.07;;;;;;;11.49;100.00;101788.47;5233417;28;20135;-74
2023/02/18 06:23:12;;;;;;;8.20;7.40;;;;;;;11.46;100.00;101778.19;5230603;28;20041;-74
2023/02/18 06:25:43;;;;;;;8.90;8.10;;;;;;;11.45;100.00;101789.66;5230612;28;20025;-74
2023/02/18 06:28:16;;;;;;;8.93;8.13;;;;;;;11.50;100.00;101784.88;5235663;28;20025;-73
2023/02/18 06:30:48;;;;;;;9.33;8.43;;;;;;;11.51;100.00;101776.06;5235109;28;20025;-74
2023/02/18 06:33:19;;;;;;;10.68;9.77;;;;;;;11.47;100.00;101784.28;5233130;28;20021;-74
2023/02/18 06:35:54;;;;;;;11.07;10.07;;;;;;;11.44;100.00;101780.94;5234974;28;20037;-71
2023/02/18 06:38:26;;;;;;;11.40;10.30;;;;;;;11.36;100.00;101791.13;5231698;28;20025;-72
2023/02/18 06:40:57;;;;;;;12.65;11.45;;;;;;;11.38;100.00;101797.13;5234457;28;20048;-74
2023/02/18 06:43:29;;;;;;;12.50;11.30;;;;;;;11.40;100.00;101799.63;5234751;28;20032;-74
2023/02/18 06:46:00;;;;;;;11.82;10.75;;;;;;;11.38;100.00;101793.66;5231361;28;20605;-74
2023/02/18 06:48:32;;;;;;;13.00;11.80;;;;;;;11.32;100.00;101786.22;5233706;28;20064;-74
2023/02/18 06:51:04;;;;;;;13.38;12.07;;;;;;;11.38;100.00;101794.50;5234908;28;20025;-74
2023/02/18 06:53:35;;;;;;;12.70;11.50;;;;;;;11.41;100.00;101783.78;5237581;28;20029;-72
2023/02/18 06:56:07;;;;;;;11.38;10.32;;;;;;;11.30;100.00;101788.97;5231642;28;20048;-74
2023/02/18 06:58:38;;;;;;;12.40;11.30;;;;;;;11.26;100.00;101790.16;5235883;28;20032;-74
2023/02/18 07:01:09;;;;;;;11.73;10.73;;;;;;;11.31;100.00;101784.56;5231879;28;20061;-73
2023/02/18 07:03:41;;;;;;;11.93;10.85;;;;;;;11.34;100.00;101789.59;5200233;28;20038;-74
2023/02/18 07:06:12;;;;;;;13.20;12.02;;;;;;;11.30;100.00;101791.59;5232910;28;20510;-73
2023/02/18 07:08:43;;;;;;;13.60;12.35;;;;;;;11.27;100.00;101793.59;5234406;28;20040;-74
2023/02/18 07:11:15;;;;;;;15.20;13.90;;;;;;;11.34;100.00;101800.09;5225250;28;20414;-74
2023/02/18 07:13:46;;;;;;;15.05;13.65;;;;;;;11.33;100.00;101806.28;5213401;28;20415;-74
2023/02/18 07:16:17;;;;;;;13.02;11.82;;;;;;;11.37;100.00;101807.75;5232018;28;20018;-73
2023/02/18 07:18:48;;;;;;;13.05;11.75;;;;;;;11.33;100.00;101801.88;5235384;28;20025;-73
2023/02/18 07:21:20;;;;;;;11.85;10.82;;;;;;;11.22;100.00;101791.31;5228787;28;20602;-74
2023/02/18 07:23:51;;;;;;;13.20;11.80;;;;;;;11.25;100.00;101795.50;5236434;28;20022;-74
2023/02/18 07:26:22;;;;;;;13.95;12.50;;;;;;;11.21;100.00;101789.63;5231698;28;20022;-73
2023/02/18 07:28:54;;;;;;;13.13;11.82;;;;;;;11.17;100.00;101804.78;5229602;28;20029;-74
2023/02/18 07:31:25;;;;;;;12.43;10.13;;;;;;;11.14;100.00;101799.75;5233305;28;20104;-74
2023/02/18 07:33:56;;;;;;;12.82;10.10;;;;;;;11.07;100.00;101806.38;5235396;28;20453;-73
2023/02/18 07:36:28;;;;;;;9.57;8.68;;;;;;;11.11;100.00;101812.25;5214187;28;20398;-74
2023/02/18 07:38:59;;;;;;;10.30;8.32;;;;;;;11.12;100.00;101816.53;5205483;28;20034;-74
2023/02/18 07:41:30;;;;;;;9.70;7.90;;;;;;;11.13;100.00;101829.53;5205437;28;20029;-72
2023/02/18 07:44:02;;;;;;;9.23;7.38;;;;;;;11.07;100.00;101826.53;5231388;28;20033;-73
2023/02/18 07:46:33;;;;;;;11.90;7.30;;;;;;;11.07;100.00;101823.91;5234398;28;20112;-72
2023/02/18 07:49:04;;;;;;;12.70;7.50;;;;;;;11.04;100.00;101827.56;5236261;28;20036;-73
2023/02/18 07:51:37;;;;;;;11.85;6.35;;;;;;;11.03;100.00;101839.00;5233159;28;20032;-72
2023/02/18 07:54:08;;;;;;;10.05;6.85;;;;;;;11.02;100.00;101839.09;5215987;28;20037;-73
2023/02/18 07:56:41;;;;;;;9.20;6.68;;;;;;;11.03;100.00;101836.38;5231548;28;20037;-74
2023/02/18 07:59:13;;;;;;;;;;;;;;;11.52;100.00;101835.50;5236818;28;20061;-74
2023/02/18 08:01:44;;;;;;;12.32;6.97;;;;;;;11.03;100.00;101825.91;5235202;28;19998;-74
2023/02/18 08:04:15;;;;;;;10.85;7.03;;;;;;;11.01;100.00;101825.16;5231433;28;20030;-74
2023/02/18 08:06:48;;;;;;;14.00;7.32;;;;;;;11.01;100.00;101834.81;5227799;28;20491;-74
2023/02/18 08:09:19;;;;;;;13.73;7.05;;;;;;;11.01;100.00;101833.03;5230591;28;20805;-75
2023/02/18 08:11:51;;;;;;;14.00;7.32;;;;;;;11.00;100.00;101830.53;5228651;28;20034;-75
2023/02/18 08:14:22;;;;;;;11.75;7.28;;;;;;;11.06;100.00;101822.19;5230985;28;20125;-74
2023/02/18 08:16:53;;;;;;;10.80;6.63;;;;;;;11.13;100.00;101824.28;5234645;28;20534;-74
2023/02/18 08:19:25;;;;;;;12.50;7.47;;;;;;;11.04;100.00;101824.94;5229635;28;20057;-75
2023/02/18 08:22:00;;;;;;;10.82;7.15;;;;;;;11.29;100.00;101825.81;5228686;28;20029;-74
2023/02/18 08:24:31;;;;;;;12.75;6.55;;;;;;;11.26;100.00;101819.00;5231854;28;20033;-75
2023/02/18 08:27:03;;;;;;;11.90;6.97;;;;;;;11.32;100.00;101818.53;5229151;28;20076;-75
2023/02/18 08:29:34;;;;;;;11.75;6.78;;;;;;;11.36;100.00;101820.00;5229476;28;20474;-74
2023/02/18 08:32:05;;;;;;;12.43;6.97;;;;;;;11.41;100.00;101811.81;5235990;28;20035;-74
2023/02/18 08:34:37;;;;;;;11.70;6.25;;;;;;;11.33;100.00;101815.00;5216009;28;20052;-74
2023/02/18 08:37:08;;;;;;;14.23;6.10;;;;;;;11.41;100.00;101817.91;5213902;28;20036;-75
2023/02/18 08:39:39;;;;;;;11.27;5.90;;;;;;;11.42;100.00;101818.72;5223734;28;20036;-74
2023/02/18 08:42:10;;;;;;;11.48;5.28;;;;;;;11.45;100.00;101815.88;5229286;28;20038;-74
2023/02/18 08:44:42;;;;;;;10.88;5.60;;;;;;;11.48;100.00;101826.16;5228477;28;20144;-74
2023/02/18 08:47:13;;;;;;;14.65;5.28;;;;;;;11.49;100.00;101827.00;5226828;28;20029;-74
2023/02/18 08:49:44;;;;;;;14.27;5.35;;;;;;;11.51;100.00;101820.66;5228071;28;20478;-74
2023/02/18 08:52:16;;;;;;;11.45;5.03;;;;;;;11.50;100.00;101819.00;5230399;28;20107;-75
2023/02/18 08:54:47;;;;;;;11.90;5.10;;;;;;;11.50;100.00;101826.03;5225054;28;20027;-74
2023/02/18 08:57:18;;;;;;;17.65;6.55;;;;;;;11.50;100.00;101824.25;5228164;28;20025;-75
2023/02/18 08:59:49;;;;;;;11.35;4.57;;;;;;;11.44;100.00;101835.22;5230357;28;20578;-74
2023/02/18 09:02:21;;;;;;;11.90;5.40;;;;;;;11.50;100.00;101823.41;5231581;28;20032;-75
2023/02/18 09:04:52;;;;;;;10.98;4.93;;;;;;;11.58;100.00;101821.91;5230292;28;20113;-75
2023/02/18 09:07:24;;;;;;;10.10;4.53;;;;;;;11.56;100.00;101828.22;5234855;28;20033;-75
2023/02/18 09:09:55;;;;;;;9.95;4.35;;;;;;;11.55;100.00;101823.91;5233643;28;20041;-75
2023/02/18 09:12:27;;;;;;;12.20;4.05;;;;;;;11.62;100.00;101822.50;5227507;28;20418;-75
2023/02/18 09:14:59;;;;;;;10.75;4.57;;;;;;;11.63;100.00;101821.56;5228376;28;20025;-75
2023/02/18 09:17:30;;;;;;;10.20;3.95;;;;;;;11.65;100.00;101825.75;5225074;28;20113;-74
2023/02/18 09:20:03;;;;;;;11.70;3.83;;;;;;;11.54;100.00;101817.81;5231505;28;20120;-75
2023/02/18 09:22:34;;;;;;;9.90;3.63;;;;;;;11.51;100.00;101828.53;5230989;28;20651;-75
2023/02/18 09:25:06;;;;;;;11.50;3.72;;;;;;;11.49;100.00;101835.72;5226417;28;20120;-75
2023/02/18 09:27:37;;;;;;;9.75;3.13;;;;;;;11.53;100.00;101831.06;5230795;28;20033;-75
2023/02/18 09:30:09;;;;;;;7.30;3.15;;;;;;;11.49;100.00;101830.47;5225951;28;20359;-74
2023/02/18 09:32:40;;;;;;;9.98;3.10;;;;;;;11.41;100.00;101831.00;5226707;28;20107;-75
2023/02/18 09:35:11;;;;;;;11.23;3.30;;;;;;;11.44;100.00;101836.03;5224980;28;20402;-75
2023/02/18 09:37:43;;;;;;;11.63;3.70;;;;;;;11.36;100.00;101838.38;5230419;28;20029;-75
2023/02/18 09:40:25;;;;;;;11.00;3.47;;;;;;;11.54;100.00;101840.63;5229864;28;20025;-75
2023/02/18 09:42:57;;;;;;;12.30;2.55;;;;;;;11.41;100.00;101838.88;5223823;28;20038;-75
2023/02/18 09:45:29;;;;;;;10.23;3.35;;;;;;;11.43;100.00;101842.22;5232827;28;20056;-76
2023/02/18 09:48:02;;;;;;;9.57;3.22;;;;;;;11.39;100.00;101834.69;5230011;28;20503;-74
2023/02/18 09:50:34;;;;;;;8.07;2.70;;;;;;;11.43;100.00;101844.84;5225609;28;20549;-75
2023/02/18 09:53:05;;;;;;;9.35;3.22;;;;;;;11.38;100.00;101833.03;5231403;28;20033;-74
2023/02/18 09:55:39;;;;;;;8.63;2.67;;;;;;;11.47;100.00;101847.25;5210068;28;20025;-75
2023/02/18 09:58:16;;;;;;;10.45;2.83;;;;;;;11.45;100.00;101844.75;5228568;28;20033;-74
2023/02/18 10:00:53;;;;;;;7.72;3.10;;;;;;;11.48;100.00;101841.91;5222023;28;20033;-76
2023/02/18 10:03:25;;;;;;;11.50;3.10;;;;;;;11.40;100.00;101849.47;5217654;28;20021;-77
2023/02/18 10:06:05;;;;;;;11.05;3.42;;;;;;;11.49;100.00;101861.94;5219925;28;20111;-75
2023/02/18 10:08:41;;;;;;;10.07;2.90;;;;;;;11.43;100.00;101842.22;5227810;28;20573;-74
2023/02/18 10:11:16;;;;;;;9.10;2.70;;;;;;;11.44;100.00;101858.84;5225715;28;20115;-76
2023/02/18 10:13:55;;;;;;;10.15;3.78;;;;;;;11.50;100.00;101852.28;5196208;28;20505;-75
2023/02/18 10:16:26;;;;;;;9.13;3.55;;;;;;;11.52;100.00;101863.53;5223853;28;20037;-75
2023/02/18 10:19:17;;;;;;;8.75;3.50;;;;;;;11.55;100.00;101865.91;5225519;28;20464;-75
2023/02/18 10:21:51;;;;;;;11.70;3.40;;;;;;;11.58;100.00;101866.53;5225875;28;20504;-75
2023/02/18 10:24:27;;;;;;;8.95;3.53;;;;;;;11.61;100.00;101868.94;5216273;28;20308;-75
2023/02/18 10:27:02;;;;;;;10.50;3.45;;;;;;;11.57;100.00;101864.00;5228641;28;20383;-75
2023/02/18 10:29:34;;;;;;;10.55;3.60;;;;;;;11.62;100.00;101867.13;5227222;28;20392;-75
2023/02/18 10:32:18;;;;;;;7.55;3.75;;;;;;;11.64;100.00;101879.22;5231403;28;20033;-74
2023/02/18 10:34:52;;;;;;;;;;;;;;;12.20;100.00;101865.50;5229608;28;20370;-74
2023/02/18 10:38:02;;;;;;;9.20;3.92;;;;;;;11.80;100.00;101875.47;5224981;28;20031;-75
2023/02/18 10:40:50;;;;;;;9.38;3.70;;;;;;;11.92;100.00;101859.66;5143009;29;20104;-75
2023/02/18 10:43:37;;;;;;;9.65;3.58;;;;;;;11.86;100.00;101870.63;5225663;28;20481;-75
2023/02/18 10:46:30;;;;;;;7.13;3.40;;;;;;;12.00;100.00;101866.97;5227636;28;20744;-75
2023/02/18 10:49:30;;;;;;;7.97;4.00;;;;;;;12.04;100.00;101868.41;5231332;28;20087;-75
2023/02/18 10:52:05;;;;;;;8.25;3.53;;;;;;;11.83;100.00;101880.50;5229985;28;20400;-75
2023/02/18 10:55:00;;;;;;;10.65;3.33;;;;;;;12.04;100.00;101894.69;5233144;28;20091;-75
2023/02/18 10:57:32;;;;;;;9.88;3.90;;;;;;;11.92;100.00;101883.28;5229961;28;20418;-75
2023/02/18 11:00:25;;;;;;;12.40;3.92;;;;;;;12.16;100.00;101883.28;5227279;28;20025;-75
2023/02/18 11:03:09;;;;;;;8.23;3.63;;;;;;;12.00;100.00;101889.78;5228452;28;20052;-75
2023/02/18 11:05:40;;;;;;;;;;;;;;;12.35;100.00;101882.72;5228444;28;20033;-74
2023/02/18 11:08:25;;;;;;;6.88;3.63;;;;;;;12.10;100.00;101899.47;5225661;28;19913;-75
2023/02/18 11:10:57;;;;;;;8.07;4.13;;;;;;;11.98;100.00;101895.16;5229928;28;20043;-75
2023/02/18 11:13:33;;;;;;;8.75;4.13;;;;;;;12.05;100.00;101892.91;5231757;28;20017;-75
2023/02/18 11:16:05;;;;;;;8.45;3.88;;;;;;;12.04;100.00;101893.84;5230473;28;20116;-75
2023/02/18 11:18:39;;;;;;;11.02;3.88;;;;;;;12.09;100.00;101897.81;5233489;28;20103;-75
2023/02/18 11:21:22;;;;;;;;;;;;;;;12.61;100.00;101901.78;5234149;28;20344;-76
2023/02/18 11:23:55;;;;;;;10.38;3.85;;;;;;;12.09;100.00;101903.06;5229123;28;19972;-74
2023/02/18 11:26:30;;;;;;;7.93;3.53;;;;;;;12.14;100.00;101889.59;5220199;28;20033;-76
2023/02/18 11:29:19;;;;;;;8.35;3.40;;;;;;;12.29;100.00;101892.84;5218865;28;20021;-74
2023/02/18 11:31:54;;;;;;;8.30;3.30;;;;;;;12.18;100.00;101888.41;5230922;28;20032;-74
2023/02/18 11:34:29;;;;;;;9.35;4.00;;;;;;;12.22;100.00;101897.72;5231508;28;20028;-74
2023/02/18 11:37:10;;;;;;;9.77;3.20;;;;;;;12.31;100.00;101889.16;5231539;28;20486;-74
2023/02/18 11:39:47;;;;;;;6.15;3.35;;;;;;;12.30;100.00;101892.72;5228102;28;20026;-75
2023/02/18 11:42:21;;;;;;;6.75;3.53;;;;;;;12.33;100.00;101894.28;5230257;28;20029;-75
2023/02/18 11:44:58;;;;;;;10.23;3.92;;;;;;;12.44;100.00;101891.69;5207556;28;20017;-73